sensor_id;sensor_type;location;lat;lon;timestamp;P1;durP1;ratioP1;P2;durP2;ratioP2
6007;SDS011;3032;49.484;11.112;2023-06-14T00:00:18;7.20;;;3.90;;
6007;SDS011;3032;49.484;11.112;2023-06-14T00:02:43;4.87;;;4.37;;
6007;SDS011;3032;49.484;11.112;2023-06-14T00:05:09;4.40;;;4.00;;
6007;SDS011;3032;49.484;11.112;2023-06-14T00:07:41;5.68;;;3.97;;
6007;SDS011;3032;49.484;11.112;2023-06-14T00:10:13;4.63;;;4.22;;
6007;SDS011;3032;49.484;11.112;2023-06-14T00:12:39;4.72;;;4.20;;
6007;SDS011;3032;49.484;11.112;2023-06-14T00:15:05;5.65;;;5.25;;
6007;SDS011;3032;49.484;11.112;2023-06-14T00:17:32;6.30;;;3.80;;
6007;SDS011;3032;49.484;11.112;2023-06-14T00:19:59;4.97;;;4.15;;
6007;SDS011;3032;49.484;11.112;2023-06-14T00:22:25;4.38;;;4.03;;
6007;SDS011;3032;49.484;11.112;2023-06-14T00:24:51;3.87;;;3.57;;
6007;SDS011;3032;49.484;11.112;2023-06-14T00:27:17;7.60;;;3.97;;
6007;SDS011;3032;49.484;11.112;2023-06-14T00:29:43;4.47;;;4.10;;
6007;SDS011;3032;49.484;11.112;2023-06-14T00:32:08;5.70;;;4.50;;
6007;SDS011;3032;49.484;11.112;2023-06-14T00:34:34;7.33;;;4.30;;
6007;SDS011;3032;49.484;11.112;2023-06-14T00:36:59;5.10;;;4.67;;
6007;SDS011;3032;49.484;11.112;2023-06-14T00:39:26;4.47;;;4.07;;
6007;SDS011;3032;49.484;11.112;2023-06-14T00:41:52;6.10;;;4.00;;
6007;SDS011;3032;49.484;11.112;2023-06-14T00:44:17;4.57;;;4.03;;
6007;SDS011;3032;49.484;11.112;2023-06-14T00:46:44;4.20;;;3.90;;
6007;SDS011;3032;49.484;11.112;2023-06-14T00:49:10;4.78;;;3.88;;
6007;SDS011;3032;49.484;11.112;2023-06-14T00:51:38;7.55;;;3.80;;
6007;SDS011;3032;49.484;11.112;2023-06-14T00:54:04;4.82;;;4.30;;
6007;SDS011;3032;49.484;11.112;2023-06-14T00:56:29;4.73;;;4.20;;
6007;SDS011;3032;49.484;11.112;2023-06-14T00:58:56;4.93;;;4.00;;
6007;SDS011;3032;49.484;11.112;2023-06-14T01:01:22;4.32;;;3.88;;
6007;SDS011;3032;49.484;11.112;2023-06-14T01:03:49;7.28;;;4.43;;
6007;SDS011;3032;49.484;11.112;2023-06-14T01:06:26;5.75;;;4.05;;
6007;SDS011;3032;49.484;11.112;2023-06-14T01:11:32;5.45;;;4.40;;
6007;SDS011;3032;49.484;11.112;2023-06-14T01:14:01;6.15;;;4.20;;
6007;SDS011;3032;49.484;11.112;2023-06-14T01:16:28;6.20;;;4.50;;
6007;SDS011;3032;49.484;11.112;2023-06-14T01:18:56;4.88;;;4.40;;
6007;SDS011;3032;49.484;11.112;2023-06-14T01:21:23;5.10;;;4.60;;
6007;SDS011;3032;49.484;11.112;2023-06-14T01:23:50;7.28;;;4.15;;
6007;SDS011;3032;49.484;11.112;2023-06-14T01:26:19;5.45;;;4.68;;
6007;SDS011;3032;49.484;11.112;2023-06-14T01:28:46;4.97;;;4.57;;
6007;SDS011;3032;49.484;11.112;2023-06-14T01:31:17;5.28;;;4.78;;
6007;SDS011;3032;49.484;11.112;2023-06-14T01:33:46;5.80;;;4.00;;
6007;SDS011;3032;49.484;11.112;2023-06-14T01:36:14;4.72;;;4.32;;
6007;SDS011;3032;49.484;11.112;2023-06-14T01:38:41;4.65;;;4.25;;
6007;SDS011;3032;49.484;11.112;2023-06-14T01:41:08;5.05;;;4.43;;
6007;SDS011;3032;49.484;11.112;2023-06-14T01:43:34;5.40;;;4.90;;
6007;SDS011;3032;49.484;11.112;2023-06-14T01:46:00;5.03;;;4.53;;
6007;SDS011;3032;49.484;11.112;2023-06-14T01:48:28;6.30;;;4.30;;
6007;SDS011;3032;49.484;11.112;2023-06-14T01:50:53;8.63;;;5.30;;
6007;SDS011;3032;49.484;11.112;2023-06-14T01:53:19;11.10;;;5.30;;
6007;SDS011;3032;49.484;11.112;2023-06-14T01:55:45;6.85;;;4.63;;
6007;SDS011;3032;49.484;11.112;2023-06-14T01:58:13;5.07;;;4.68;;
6007;SDS011;3032;49.484;11.112;2023-06-14T02:00:41;5.47;;;4.80;;
6007;SDS011;3032;49.484;11.112;2023-06-14T02:03:08;5.07;;;4.55;;
6007;SDS011;3032;49.484;11.112;2023-06-14T02:05:33;5.23;;;4.73;;
6007;SDS011;3032;49.484;11.112;2023-06-14T02:07:59;6.63;;;4.35;;
6007;SDS011;3032;49.484;11.112;2023-06-14T02:10:25;5.90;;;4.63;;
6007;SDS011;3032;49.484;11.112;2023-06-14T02:12:51;4.50;;;4.10;;
6007;SDS011;3032;49.484;11.112;2023-06-14T02:15:17;5.70;;;4.60;;
6007;SDS011;3032;49.484;11.112;2023-06-14T02:17:44;5.72;;;4.65;;
6007;SDS011;3032;49.484;11.112;2023-06-14T02:20:12;6.75;;;4.57;;
6007;SDS011;3032;49.484;11.112;2023-06-14T02:22:38;9.93;;;4.32;;
6007;SDS011;3032;49.484;11.112;2023-06-14T02:25:04;6.63;;;4.57;;
6007;SDS011;3032;49.484;11.112;2023-06-14T02:27:29;9.13;;;5.20;;
6007;SDS011;3032;49.484;11.112;2023-06-14T02:29:55;6.07;;;5.00;;
6007;SDS011;3032;49.484;11.112;2023-06-14T02:32:20;6.90;;;4.27;;
6007;SDS011;3032;49.484;11.112;2023-06-14T02:34:46;9.43;;;4.70;;
6007;SDS011;3032;49.484;11.112;2023-06-14T02:37:15;6.85;;;4.72;;
6007;SDS011;3032;49.484;11.112;2023-06-14T02:39:41;4.90;;;4.38;;
6007;SDS011;3032;49.484;11.112;2023-06-14T02:42:07;6.07;;;4.80;;
6007;SDS011;3032;49.484;11.112;2023-06-14T02:44:32;5.33;;;4.87;;
6007;SDS011;3032;49.484;11.112;2023-06-14T02:46:58;8.57;;;4.97;;
6007;SDS011;3032;49.484;11.112;2023-06-14T02:49:25;5.75;;;5.20;;
6007;SDS011;3032;49.484;11.112;2023-06-14T02:51:51;7.73;;;4.93;;
6007;SDS011;3032;49.484;11.112;2023-06-14T02:54:16;5.40;;;4.90;;
6007;SDS011;3032;49.484;11.112;2023-06-14T02:56:42;5.77;;;4.40;;
6007;SDS011;3032;49.484;11.112;2023-06-14T02:59:08;7.80;;;5.03;;
6007;SDS011;3032;49.484;11.112;2023-06-14T03:01:34;6.30;;;4.57;;
6007;SDS011;3032;49.484;11.112;2023-06-14T03:04:02;6.28;;;4.70;;
6007;SDS011;3032;49.484;11.112;2023-06-14T03:06:28;5.78;;;4.65;;
6007;SDS011;3032;49.484;11.112;2023-06-14T03:08:55;5.55;;;5.03;;
6007;SDS011;3032;49.484;11.112;2023-06-14T03:11:24;5.38;;;4.88;;
6007;SDS011;3032;49.484;11.112;2023-06-14T03:13:51;5.23;;;4.73;;
6007;SDS011;3032;49.484;11.112;2023-06-14T03:16:17;5.90;;;5.05;;
6007;SDS011;3032;49.484;11.112;2023-06-14T03:18:46;6.55;;;5.05;;
6007;SDS011;3032;49.484;11.112;2023-06-14T03:21:15;5.43;;;4.93;;
6007;SDS011;3032;49.484;11.112;2023-06-14T03:23:41;6.27;;;4.93;;
6007;SDS011;3032;49.484;11.112;2023-06-14T03:26:07;5.43;;;4.85;;
6007;SDS011;3032;49.484;11.112;2023-06-14T03:28:33;5.60;;;5.10;;
6007;SDS011;3032;49.484;11.112;2023-06-14T03:30:58;6.23;;;5.47;;
6007;SDS011;3032;49.484;11.112;2023-06-14T03:33:24;6.33;;;5.10;;
6007;SDS011;3032;49.484;11.112;2023-06-14T03:35:50;9.13;;;5.90;;
6007;SDS011;3032;49.484;11.112;2023-06-14T03:38:16;5.93;;;4.70;;
6007;SDS011;3032;49.484;11.112;2023-06-14T03:40:42;6.20;;;4.77;;
6007;SDS011;3032;49.484;11.112;2023-06-14T03:43:09;8.38;;;5.28;;
6007;SDS011;3032;49.484;11.112;2023-06-14T03:45:35;7.00;;;6.00;;
6007;SDS011;3032;49.484;11.112;2023-06-14T03:48:00;6.00;;;5.23;;
6007;SDS011;3032;49.484;11.112;2023-06-14T03:50:26;5.23;;;4.73;;
6007;SDS011;3032;49.484;11.112;2023-06-14T03:52:52;7.80;;;5.33;;
6007;SDS011;3032;49.484;11.112;2023-06-14T03:55:18;5.82;;;5.43;;
6007;SDS011;3032;49.484;11.112;2023-06-14T03:57:43;7.73;;;5.40;;
6007;SDS011;3032;49.484;11.112;2023-06-14T04:00:09;7.07;;;5.53;;
6007;SDS011;3032;49.484;11.112;2023-06-14T04:02:37;9.88;;;5.95;;
6007;SDS011;3032;49.484;11.112;2023-06-14T04:05:03;6.90;;;6.20;;
6007;SDS011;3032;49.484;11.112;2023-06-14T04:07:30;7.38;;;5.35;;
6007;SDS011;3032;49.484;11.112;2023-06-14T04:09:55;5.90;;;5.40;;
6007;SDS011;3032;49.484;11.112;2023-06-14T04:12:21;6.37;;;5.77;;
6007;SDS011;3032;49.484;11.112;2023-06-14T04:14:46;8.50;;;6.03;;
6007;SDS011;3032;49.484;11.112;2023-06-14T04:17:12;6.53;;;5.93;;
6007;SDS011;3032;49.484;11.112;2023-06-14T04:19:38;7.17;;;6.10;;
6007;SDS011;3032;49.484;11.112;2023-06-14T04:22:03;6.00;;;5.47;;
6007;SDS011;3032;49.484;11.112;2023-06-14T04:24:29;6.57;;;5.60;;
6007;SDS011;3032;49.484;11.112;2023-06-14T04:26:57;7.07;;;5.15;;
6007;SDS011;3032;49.484;11.112;2023-06-14T04:29:24;8.45;;;6.38;;
6007;SDS011;3032;49.484;11.112;2023-06-14T04:31:53;5.78;;;5.28;;
6007;SDS011;3032;49.484;11.112;2023-06-14T04:34:19;5.68;;;5.18;;
6007;SDS011;3032;49.484;11.112;2023-06-14T04:36:46;5.97;;;5.38;;
6007;SDS011;3032;49.484;11.112;2023-06-14T04:39:18;7.35;;;6.13;;
6007;SDS011;3032;49.484;11.112;2023-06-14T04:41:48;6.10;;;5.50;;
6007;SDS011;3032;49.484;11.112;2023-06-14T04:44:17;6.90;;;6.10;;
6007;SDS011;3032;49.484;11.112;2023-06-14T04:46:44;6.22;;;5.57;;
6007;SDS011;3032;49.484;11.112;2023-06-14T04:49:14;8.68;;;5.60;;
6007;SDS011;3032;49.484;11.112;2023-06-14T04:51:40;8.50;;;6.75;;
6007;SDS011;3032;49.484;11.112;2023-06-14T04:54:07;7.38;;;6.47;;
6007;SDS011;3032;49.484;11.112;2023-06-14T04:56:35;6.72;;;5.25;;
6007;SDS011;3032;49.484;11.112;2023-06-14T04:59:02;6.18;;;5.50;;
6007;SDS011;3032;49.484;11.112;2023-06-14T05:01:29;5.20;;;4.70;;
6007;SDS011;3032;49.484;11.112;2023-06-14T05:03:56;6.15;;;5.57;;
6007;SDS011;3032;49.484;11.112;2023-06-14T05:06:22;6.03;;;4.87;;
6007;SDS011;3032;49.484;11.112;2023-06-14T05:08:48;8.13;;;5.13;;
6007;SDS011;3032;49.484;11.112;2023-06-14T05:11:14;9.70;;;4.90;;
6007;SDS011;3032;49.484;11.112;2023-06-14T05:13:41;6.00;;;5.55;;
6007;SDS011;3032;49.484;11.112;2023-06-14T05:16:08;6.70;;;4.40;;
6007;SDS011;3032;49.484;11.112;2023-06-14T05:18:34;5.30;;;4.80;;
6007;SDS011;3032;49.484;11.112;2023-06-14T05:21:00;6.25;;;4.68;;
6007;SDS011;3032;49.484;11.112;2023-06-14T05:23:26;5.70;;;5.20;;
6007;SDS011;3032;49.484;11.112;2023-06-14T05:25:51;5.10;;;4.60;;
6007;SDS011;3032;49.484;11.112;2023-06-14T05:28:18;5.88;;;4.40;;
6007;SDS011;3032;49.484;11.112;2023-06-14T05:30:43;4.73;;;4.20;;
6007;SDS011;3032;49.484;11.112;2023-06-14T05:33:09;6.07;;;4.70;;
6007;SDS011;3032;49.484;11.112;2023-06-14T05:35:34;6.97;;;4.70;;
6007;SDS011;3032;49.484;11.112;2023-06-14T05:38:00;5.80;;;4.73;;
6007;SDS011;3032;49.484;11.112;2023-06-14T05:40:26;4.10;;;3.80;;
6007;SDS011;3032;49.484;11.112;2023-06-14T05:42:51;7.40;;;4.43;;
6007;SDS011;3032;49.484;11.112;2023-06-14T05:45:17;6.23;;;4.73;;
6007;SDS011;3032;49.484;11.112;2023-06-14T05:47:43;7.47;;;4.70;;
6007;SDS011;3032;49.484;11.112;2023-06-14T05:50:09;4.60;;;4.20;;
6007;SDS011;3032;49.484;11.112;2023-06-14T05:52:34;8.15;;;4.60;;
6007;SDS011;3032;49.484;11.112;2023-06-14T05:55:02;4.88;;;4.53;;
6007;SDS011;3032;49.484;11.112;2023-06-14T05:57:28;4.78;;;4.25;;
6007;SDS011;3032;49.484;11.112;2023-06-14T05:59:54;7.93;;;4.50;;
6007;SDS011;3032;49.484;11.112;2023-06-14T06:02:19;4.20;;;3.90;;
6007;SDS011;3032;49.484;11.112;2023-06-14T06:04:45;6.40;;;4.87;;
6007;SDS011;3032;49.484;11.112;2023-06-14T06:07:10;4.57;;;4.20;;
6007;SDS011;3032;49.484;11.112;2023-06-14T06:09:36;5.37;;;4.87;;
6007;SDS011;3032;49.484;11.112;2023-06-14T06:12:02;5.43;;;4.93;;
6007;SDS011;3032;49.484;11.112;2023-06-14T06:14:28;5.15;;;4.63;;
6007;SDS011;3032;49.484;11.112;2023-06-14T06:16:54;4.60;;;4.30;;
6007;SDS011;3032;49.484;11.112;2023-06-14T06:19:19;4.20;;;3.80;;
6007;SDS011;3032;49.484;11.112;2023-06-14T06:21:45;4.07;;;3.77;;
6007;SDS011;3032;49.484;11.112;2023-06-14T06:24:11;5.27;;;4.60;;
6007;SDS011;3032;49.484;11.112;2023-06-14T06:26:36;9.03;;;4.40;;
6007;SDS011;3032;49.484;11.112;2023-06-14T06:29:02;5.18;;;4.10;;
6007;SDS011;3032;49.484;11.112;2023-06-14T06:31:28;4.67;;;4.37;;
6007;SDS011;3032;49.484;11.112;2023-06-14T06:33:54;4.97;;;3.87;;
6007;SDS011;3032;49.484;11.112;2023-06-14T06:36:20;5.57;;;4.05;;
6007;SDS011;3032;49.484;11.112;2023-06-14T06:38:46;6.53;;;3.85;;
6007;SDS011;3032;49.484;11.112;2023-06-14T06:41:12;5.57;;;3.55;;
6007;SDS011;3032;49.484;11.112;2023-06-14T06:43:38;4.20;;;3.90;;
6007;SDS011;3032;49.484;11.112;2023-06-14T06:46:04;5.70;;;4.93;;
6007;SDS011;3032;49.484;11.112;2023-06-14T06:48:29;4.67;;;4.27;;
6007;SDS011;3032;49.484;11.112;2023-06-14T06:50:55;4.80;;;4.23;;
6007;SDS011;3032;49.484;11.112;2023-06-14T06:53:21;4.73;;;4.10;;
6007;SDS011;3032;49.484;11.112;2023-06-14T06:55:48;4.10;;;3.80;;
6007;SDS011;3032;49.484;11.112;2023-06-14T06:58:13;5.88;;;4.28;;
6007;SDS011;3032;49.484;11.112;2023-06-14T07:00:39;4.10;;;3.80;;
6007;SDS011;3032;49.484;11.112;2023-06-14T07:03:05;4.43;;;4.03;;
6007;SDS011;3032;49.484;11.112;2023-06-14T07:05:31;3.93;;;3.40;;
6007;SDS011;3032;49.484;11.112;2023-06-14T07:07:57;4.50;;;3.80;;
6007;SDS011;3032;49.484;11.112;2023-06-14T07:10:23;3.83;;;3.63;;
6007;SDS011;3032;49.484;11.112;2023-06-14T07:12:49;7.13;;;4.07;;
6007;SDS011;3032;49.484;11.112;2023-06-14T07:15:18;3.90;;;3.60;;
6007;SDS011;3032;49.484;11.112;2023-06-14T07:17:43;4.00;;;3.70;;
6007;SDS011;3032;49.484;11.112;2023-06-14T07:20:09;3.77;;;3.43;;
6007;SDS011;3032;49.484;11.112;2023-06-14T07:22:39;3.80;;;3.50;;
6007;SDS011;3032;49.484;11.112;2023-06-14T07:25:09;4.03;;;3.63;;
6007;SDS011;3032;49.484;11.112;2023-06-14T07:27:37;6.65;;;3.50;;
6007;SDS011;3032;49.484;11.112;2023-06-14T07:30:03;4.40;;;3.67;;
6007;SDS011;3032;49.484;11.112;2023-06-14T07:32:29;4.63;;;3.60;;
6007;SDS011;3032;49.484;11.112;2023-06-14T07:34:54;3.73;;;3.53;;
6007;SDS011;3032;49.484;11.112;2023-06-14T07:37:20;5.60;;;3.83;;
6007;SDS011;3032;49.484;11.112;2023-06-14T07:39:45;3.83;;;3.07;;
6007;SDS011;3032;49.484;11.112;2023-06-14T07:42:11;4.93;;;3.83;;
6007;SDS011;3032;49.484;11.112;2023-06-14T07:44:36;3.60;;;3.40;;
6007;SDS011;3032;49.484;11.112;2023-06-14T07:47:02;5.03;;;3.63;;
6007;SDS011;3032;49.484;11.112;2023-06-14T07:49:28;4.00;;;3.70;;
6007;SDS011;3032;49.484;11.112;2023-06-14T07:51:53;4.60;;;3.77;;
6007;SDS011;3032;49.484;11.112;2023-06-14T07:54:19;4.47;;;4.07;;
6007;SDS011;3032;49.484;11.112;2023-06-14T07:56:49;4.55;;;3.55;;
6007;SDS011;3032;49.484;11.112;2023-06-14T07:59:16;8.10;;;3.78;;
6007;SDS011;3032;49.484;11.112;2023-06-14T08:01:41;3.60;;;3.30;;
6007;SDS011;3032;49.484;11.112;2023-06-14T08:04:15;5.25;;;3.60;;
6007;SDS011;3032;49.484;11.112;2023-06-14T08:06:40;3.38;;;3.17;;
6007;SDS011;3032;49.484;11.112;2023-06-14T08:09:09;4.15;;;3.85;;
6007;SDS011;3032;49.484;11.112;2023-06-14T08:11:35;3.53;;;3.25;;
6007;SDS011;3032;49.484;11.112;2023-06-14T08:14:01;5.50;;;3.90;;
6007;SDS011;3032;49.484;11.112;2023-06-14T08:16:26;4.00;;;3.70;;
6007;SDS011;3032;49.484;11.112;2023-06-14T08:18:52;4.10;;;3.70;;
6007;SDS011;3032;49.484;11.112;2023-06-14T08:21:17;4.20;;;3.90;;
6007;SDS011;3032;49.484;11.112;2023-06-14T08:23:43;4.60;;;3.43;;
6007;SDS011;3032;49.484;11.112;2023-06-14T08:26:09;3.30;;;3.10;;
6007;SDS011;3032;49.484;11.112;2023-06-14T08:28:35;4.30;;;4.00;;
6007;SDS011;3032;49.484;11.112;2023-06-14T08:31:00;3.53;;;3.30;;
6007;SDS011;3032;49.484;11.112;2023-06-14T08:33:26;4.10;;;3.67;;
6007;SDS011;3032;49.484;11.112;2023-06-14T08:35:52;4.93;;;4.00;;
6007;SDS011;3032;49.484;11.112;2023-06-14T08:38:18;5.63;;;3.87;;
6007;SDS011;3032;49.484;11.112;2023-06-14T08:40:43;5.33;;;4.77;;
6007;SDS011;3032;49.484;11.112;2023-06-14T08:43:13;4.60;;;3.40;;
6007;SDS011;3032;49.484;11.112;2023-06-14T08:45:39;5.10;;;3.90;;
6007;SDS011;3032;49.484;11.112;2023-06-14T08:48:05;3.73;;;3.43;;
6007;SDS011;3032;49.484;11.112;2023-06-14T08:50:32;4.32;;;3.22;;
6007;SDS011;3032;49.484;11.112;2023-06-14T08:52:59;3.67;;;3.47;;
6007;SDS011;3032;49.484;11.112;2023-06-14T08:55:27;4.03;;;3.63;;
6007;SDS011;3032;49.484;11.112;2023-06-14T08:57:54;3.45;;;3.25;;
6007;SDS011;3032;49.484;11.112;2023-06-14T09:00:24;5.60;;;3.35;;
6007;SDS011;3032;49.484;11.112;2023-06-14T09:02:52;4.32;;;3.70;;
6007;SDS011;3032;49.484;11.112;2023-06-14T09:05:23;4.07;;;3.78;;
6007;SDS011;3032;49.484;11.112;2023-06-14T09:07:52;6.43;;;4.10;;
6007;SDS011;3032;49.484;11.112;2023-06-14T09:10:20;6.45;;;4.40;;
6007;SDS011;3032;49.484;11.112;2023-06-14T09:12:46;4.30;;;3.55;;
6007;SDS011;3032;49.484;11.112;2023-06-14T09:15:12;6.67;;;4.17;;
6007;SDS011;3032;49.484;11.112;2023-06-14T09:17:39;4.07;;;3.67;;
6007;SDS011;3032;49.484;11.112;2023-06-14T09:20:05;4.97;;;3.20;;
6007;SDS011;3032;49.484;11.112;2023-06-14T09:22:35;3.75;;;3.45;;
6007;SDS011;3032;49.484;11.112;2023-06-14T09:25:05;3.58;;;3.38;;
6007;SDS011;3032;49.484;11.112;2023-06-14T09:27:31;4.15;;;3.65;;
6007;SDS011;3032;49.484;11.112;2023-06-14T09:29:57;7.40;;;4.10;;
6007;SDS011;3032;49.484;11.112;2023-06-14T09:32:23;4.40;;;4.00;;
6007;SDS011;3032;49.484;11.112;2023-06-14T09:34:49;5.00;;;4.03;;
6007;SDS011;3032;49.484;11.112;2023-06-14T09:37:36;5.70;;;3.63;;
6007;SDS011;3032;49.484;11.112;2023-06-14T09:40:03;4.38;;;4.05;;
6007;SDS011;3032;49.484;11.112;2023-06-14T09:42:29;3.80;;;3.60;;
6007;SDS011;3032;49.484;11.112;2023-06-14T09:44:56;4.30;;;4.00;;
6007;SDS011;3032;49.484;11.112;2023-06-14T09:47:23;4.25;;;3.85;;
6007;SDS011;3032;49.484;11.112;2023-06-14T09:49:50;4.45;;;4.05;;
6007;SDS011;3032;49.484;11.112;2023-06-14T09:52:17;3.88;;;3.45;;
6007;SDS011;3032;49.484;11.112;2023-06-14T09:54:45;4.32;;;3.92;;
6007;SDS011;3032;49.484;11.112;2023-06-14T09:57:13;5.40;;;3.60;;
6007;SDS011;3032;49.484;11.112;2023-06-14T09:59:48;4.15;;;3.40;;
6007;SDS011;3032;49.484;11.112;2023-06-14T10:04:57;6.78;;;4.10;;
6007;SDS011;3032;49.484;11.112;2023-06-14T10:07:30;4.18;;;3.88;;
6007;SDS011;3032;49.484;11.112;2023-06-14T10:10:03;8.90;;;3.60;;
6007;SDS011;3032;49.484;11.112;2023-06-14T10:12:30;3.95;;;3.60;;
6007;SDS011;3032;49.484;11.112;2023-06-14T10:14:56;4.40;;;4.10;;
6007;SDS011;3032;49.484;11.112;2023-06-14T10:23:11;5.35;;;4.72;;
6007;SDS011;3032;49.484;11.112;2023-06-14T10:25:41;4.35;;;3.95;;
6007;SDS011;3032;49.484;11.112;2023-06-14T10:28:14;6.75;;;3.70;;
6007;SDS011;3032;49.484;11.112;2023-06-14T10:31:03;6.18;;;4.50;;
6007;SDS011;3032;49.484;11.112;2023-06-14T10:33:29;5.90;;;3.85;;
6007;SDS011;3032;49.484;11.112;2023-06-14T10:41:34;5.18;;;3.30;;
6007;SDS011;3032;49.484;11.112;2023-06-14T10:46:39;6.00;;;3.00;;
6007;SDS011;3032;49.484;11.112;2023-06-14T10:49:05;3.83;;;3.53;;
6007;SDS011;3032;49.484;11.112;2023-06-14T10:51:38;3.72;;;3.35;;
6007;SDS011;3032;49.484;11.112;2023-06-14T10:54:14;4.38;;;3.65;;
6007;SDS011;3032;49.484;11.112;2023-06-14T10:56:46;3.67;;;3.47;;
6007;SDS011;3032;49.484;11.112;2023-06-14T10:59:13;4.13;;;3.72;;
6007;SDS011;3032;49.484;11.112;2023-06-14T11:07:22;3.80;;;3.33;;
6007;SDS011;3032;49.484;11.112;2023-06-14T11:12:52;5.03;;;4.57;;
6007;SDS011;3032;49.484;11.112;2023-06-14T11:15:19;3.83;;;3.53;;
6007;SDS011;3032;49.484;11.112;2023-06-14T11:17:52;3.80;;;3.50;;
6007;SDS011;3032;49.484;11.112;2023-06-14T11:20:25;4.68;;;3.85;;
6007;SDS011;3032;49.484;11.112;2023-06-14T11:22:51;4.30;;;3.78;;
6007;SDS011;3032;49.484;11.112;2023-06-14T11:25:18;4.80;;;3.45;;
6007;SDS011;3032;49.484;11.112;2023-06-14T11:27:44;4.43;;;3.33;;
6007;SDS011;3032;49.484;11.112;2023-06-14T11:30:10;4.97;;;3.83;;
6007;SDS011;3032;49.484;11.112;2023-06-14T11:32:37;4.90;;;3.45;;
6007;SDS011;3032;49.484;11.112;2023-06-14T11:35:03;3.50;;;3.30;;
6007;SDS011;3032;49.484;11.112;2023-06-14T11:37:30;4.53;;;3.30;;
6007;SDS011;3032;49.484;11.112;2023-06-14T11:39:58;3.92;;;3.63;;
6007;SDS011;3032;49.484;11.112;2023-06-14T11:42:24;4.75;;;3.45;;
6007;SDS011;3032;49.484;11.112;2023-06-14T11:44:52;7.28;;;3.40;;
6007;SDS011;3032;49.484;11.112;2023-06-14T11:47:18;2.85;;;2.65;;
6007;SDS011;3032;49.484;11.112;2023-06-14T11:49:44;4.20;;;3.70;;
6007;SDS011;3032;49.484;11.112;2023-06-14T11:52:10;3.85;;;3.55;;
6007;SDS011;3032;49.484;11.112;2023-06-14T11:54:36;3.37;;;2.80;;
6007;SDS011;3032;49.484;11.112;2023-06-14T11:57:02;6.57;;;2.97;;
6007;SDS011;3032;49.484;11.112;2023-06-14T11:59:29;3.65;;;3.45;;
6007;SDS011;3032;49.484;11.112;2023-06-14T12:01:56;4.25;;;3.50;;
6007;SDS011;3032;49.484;11.112;2023-06-14T12:04:28;6.28;;;3.42;;
6007;SDS011;3032;49.484;11.112;2023-06-14T12:06:54;4.40;;;3.30;;
6007;SDS011;3032;49.484;11.112;2023-06-14T12:09:22;5.38;;;3.50;;
6007;SDS011;3032;49.484;11.112;2023-06-14T12:11:49;4.35;;;3.58;;
6007;SDS011;3032;49.484;11.112;2023-06-14T12:14:14;3.93;;;3.50;;
6007;SDS011;3032;49.484;11.112;2023-06-14T12:16:41;3.97;;;3.67;;
6007;SDS011;3032;49.484;11.112;2023-06-14T12:19:14;4.33;;;3.30;;
6007;SDS011;3032;49.484;11.112;2023-06-14T12:21:41;3.10;;;2.90;;
6007;SDS011;3032;49.484;11.112;2023-06-14T12:24:08;3.03;;;2.72;;
6007;SDS011;3032;49.484;11.112;2023-06-14T12:26:39;3.30;;;3.00;;
6007;SDS011;3032;49.484;11.112;2023-06-14T12:29:07;3.80;;;3.25;;
6007;SDS011;3032;49.484;11.112;2023-06-14T12:31:33;3.97;;;3.28;;
6007;SDS011;3032;49.484;11.112;2023-06-14T12:33:58;3.43;;;3.20;;
6007;SDS011;3032;49.484;11.112;2023-06-14T12:36:24;4.10;;;2.83;;
6007;SDS011;3032;49.484;11.112;2023-06-14T12:38:51;3.80;;;3.40;;
6007;SDS011;3032;49.484;11.112;2023-06-14T12:41:20;4.90;;;3.30;;
6007;SDS011;3032;49.484;11.112;2023-06-14T12:43:47;2.83;;;2.72;;
6007;SDS011;3032;49.484;11.112;2023-06-14T12:46:12;6.20;;;3.13;;
6007;SDS011;3032;49.484;11.112;2023-06-14T12:48:38;3.23;;;3.03;;
6007;SDS011;3032;49.484;11.112;2023-06-14T12:51:03;3.50;;;3.20;;
6007;SDS011;3032;49.484;11.112;2023-06-14T12:53:29;3.20;;;3.10;;
6007;SDS011;3032;49.484;11.112;2023-06-14T12:55:54;3.30;;;3.10;;
6007;SDS011;3032;49.484;11.112;2023-06-14T12:58:20;3.47;;;3.17;;
6007;SDS011;3032;49.484;11.112;2023-06-14T13:00:46;3.70;;;3.33;;
6007;SDS011;3032;49.484;11.112;2023-06-14T13:03:12;4.25;;;2.95;;
6007;SDS011;3032;49.484;11.112;2023-06-14T13:05:38;3.20;;;3.00;;
6007;SDS011;3032;49.484;11.112;2023-06-14T13:08:06;3.67;;;3.22;;
6007;SDS011;3032;49.484;11.112;2023-06-14T13:10:34;3.15;;;3.00;;
6007;SDS011;3032;49.484;11.112;2023-06-14T13:12:59;3.47;;;3.17;;
6007;SDS011;3032;49.484;11.112;2023-06-14T13:15:25;3.67;;;3.37;;
6007;SDS011;3032;49.484;11.112;2023-06-14T13:17:52;3.83;;;3.40;;
6007;SDS011;3032;49.484;11.112;2023-06-14T13:20:17;4.37;;;2.80;;
6007;SDS011;3032;49.484;11.112;2023-06-14T13:22:43;2.70;;;2.50;;
6007;SDS011;3032;49.484;11.112;2023-06-14T13:25:09;3.83;;;3.10;;
6007;SDS011;3032;49.484;11.112;2023-06-14T13:27:34;7.70;;;2.87;;
6007;SDS011;3032;49.484;11.112;2023-06-14T13:30:00;4.37;;;3.20;;
6007;SDS011;3032;49.484;11.112;2023-06-14T13:32:26;2.50;;;2.40;;
6007;SDS011;3032;49.484;11.112;2023-06-14T13:34:53;4.20;;;3.35;;
6007;SDS011;3032;49.484;11.112;2023-06-14T13:37:18;4.27;;;2.77;;
6007;SDS011;3032;49.484;11.112;2023-06-14T13:39:44;5.87;;;2.97;;
6007;SDS011;3032;49.484;11.112;2023-06-14T13:42:10;3.60;;;3.30;;
6007;SDS011;3032;49.484;11.112;2023-06-14T13:44:36;2.50;;;2.40;;
6007;SDS011;3032;49.484;11.112;2023-06-14T13:47:02;3.17;;;2.97;;
6007;SDS011;3032;49.484;11.112;2023-06-14T13:49:27;3.27;;;2.60;;
6007;SDS011;3032;49.484;11.112;2023-06-14T13:51:53;3.60;;;3.30;;
6007;SDS011;3032;49.484;11.112;2023-06-14T13:54:19;3.93;;;3.37;;
6007;SDS011;3032;49.484;11.112;2023-06-14T13:56:46;4.07;;;3.10;;
6007;SDS011;3032;49.484;11.112;2023-06-14T13:59:12;3.53;;;3.23;;
6007;SDS011;3032;49.484;11.112;2023-06-14T14:01:38;5.17;;;3.40;;
6007;SDS011;3032;49.484;11.112;2023-06-14T14:04:03;3.67;;;3.37;;
6007;SDS011;3032;49.484;11.112;2023-06-14T14:06:29;4.28;;;3.35;;
6007;SDS011;3032;49.484;11.112;2023-06-14T14:08:55;3.33;;;3.10;;
6007;SDS011;3032;49.484;11.112;2023-06-14T14:11:21;4.30;;;3.25;;
6007;SDS011;3032;49.484;11.112;2023-06-14T14:13:47;2.83;;;2.63;;
6007;SDS011;3032;49.484;11.112;2023-06-14T14:16:13;4.63;;;3.60;;
6007;SDS011;3032;49.484;11.112;2023-06-14T14:18:38;3.23;;;3.00;;
6007;SDS011;3032;49.484;11.112;2023-06-14T14:21:04;3.23;;;2.97;;
6007;SDS011;3032;49.484;11.112;2023-06-14T14:23:30;4.63;;;3.23;;
6007;SDS011;3032;49.484;11.112;2023-06-14T14:25:58;3.08;;;2.88;;
6007;SDS011;3032;49.484;11.112;2023-06-14T14:28:28;4.13;;;3.30;;
6007;SDS011;3032;49.484;11.112;2023-06-14T14:30:54;3.23;;;2.57;;
6007;SDS011;3032;49.484;11.112;2023-06-14T14:33:19;3.60;;;3.23;;
6007;SDS011;3032;49.484;11.112;2023-06-14T14:35:45;3.63;;;3.43;;
6007;SDS011;3032;49.484;11.112;2023-06-14T14:38:12;4.20;;;3.05;;
6007;SDS011;3032;49.484;11.112;2023-06-14T14:40:38;3.00;;;2.80;;
6007;SDS011;3032;49.484;11.112;2023-06-14T14:43:05;4.28;;;2.97;;
6007;SDS011;3032;49.484;11.112;2023-06-14T14:45:30;3.30;;;3.00;;
6007;SDS011;3032;49.484;11.112;2023-06-14T14:47:56;3.70;;;3.40;;
6007;SDS011;3032;49.484;11.112;2023-06-14T14:50:22;3.87;;;3.57;;
6007;SDS011;3032;49.484;11.112;2023-06-14T14:52:48;3.73;;;3.43;;
6007;SDS011;3032;49.484;11.112;2023-06-14T14:55:13;3.10;;;2.80;;
6007;SDS011;3032;49.484;11.112;2023-06-14T14:57:39;3.30;;;3.10;;
6007;SDS011;3032;49.484;11.112;2023-06-14T15:00:05;3.50;;;3.20;;
6007;SDS011;3032;49.484;11.112;2023-06-14T15:02:31;3.10;;;2.90;;
6007;SDS011;3032;49.484;11.112;2023-06-14T15:04:56;3.90;;;2.60;;
6007;SDS011;3032;49.484;11.112;2023-06-14T15:07:25;2.90;;;2.80;;
6007;SDS011;3032;49.484;11.112;2023-06-14T15:09:58;3.30;;;3.00;;
6007;SDS011;3032;49.484;11.112;2023-06-14T15:12:27;3.78;;;2.80;;
6007;SDS011;3032;49.484;11.112;2023-06-14T15:14:53;3.43;;;2.90;;
6007;SDS011;3032;49.484;11.112;2023-06-14T15:17:19;5.63;;;3.13;;
6007;SDS011;3032;49.484;11.112;2023-06-14T15:19:45;3.17;;;2.92;;
6007;SDS011;3032;49.484;11.112;2023-06-14T15:22:12;3.30;;;3.10;;
6007;SDS011;3032;49.484;11.112;2023-06-14T15:24:39;3.38;;;3.08;;